sensor_id;sensor_type;location;lat;lon;timestamp;pressure;altitude;pressure_sealevel;temperature;humidity
53300;BME280;39187;48.476;8.310;2023-04-07T00:01:15;91136.66;;;3.78;98.75
53300;BME280;39187;48.476;8.310;2023-04-07T00:03:41;91148.69;;;3.72;99.95
53300;BME280;39187;48.476;8.310;2023-04-07T00:06:06;91143.78;;;3.63;100.00
53300;BME280;39187;48.476;8.310;2023-04-07T00:08:32;91151.34;;;3.79;99.83
53300;BME280;39187;48.476;8.310;2023-04-07T00:10:57;91149.81;;;3.78;100.00
53300;BME280;39187;48.476;8.310;2023-04-07T00:13:23;91132.59;;;4.01;99.22
53300;BME280;39187;48.476;8.310;2023-04-07T00:15:48;91142.03;;;4.20;97.94
53300;BME280;39187;48.476;8.310;2023-04-07T00:18:14;91149.16;;;4.20;98.71
53300;BME280;39187;48.476;8.310;2023-04-07T00:20:39;91145.78;;;4.30;98.41
53300;BME280;39187;48.476;8.310;2023-04-07T00:23:05;91133.75;;;4.32;98.55
53300;BME280;39187;48.476;8.310;2023-04-07T00:25:30;91134.50;;;4.26;99.11
53300;BME280;39187;48.476;8.310;2023-04-07T00:27:56;91128.88;;;4.41;98.13
53300;BME280;39187;48.476;8.310;2023-04-07T00:30:21;91131.09;;;4.36;98.30
53300;BME280;39187;48.476;8.310;2023-04-07T00:32:47;91130.75;;;4.34;98.74
53300;BME280;39187;48.476;8.310;2023-04-07T00:35:12;91125.47;;;4.41;98.51
53300;BME280;39187;48.476;8.310;2023-04-07T00:37:38;91117.19;;;4.39;99.00
53300;BME280;39187;48.476;8.310;2023-04-07T00:40:04;91117.94;;;4.08;100.00
53300;BME280;39187;48.476;8.310;2023-04-07T00:42:32;91117.88;;;3.76;100.00
53300;BME280;39187;48.476;8.310;2023-04-07T00:44:57;91110.38;;;3.99;100.00
53300;BME280;39187;48.476;8.310;2023-04-07T00:47:23;91108.13;;;3.83;100.00
53300;BME280;39187;48.476;8.310;2023-04-07T00:49:48;91105.84;;;3.78;100.00
53300;BME280;39187;48.476;8.310;2023-04-07T00:52:14;91102.44;;;3.74;100.00
53300;BME280;39187;48.476;8.310;2023-04-07T00:54:41;91099.47;;;3.76;100.00
53300;BME280;39187;48.476;8.310;2023-04-07T00:57:06;91089.34;;;4.06;100.00
53300;BME280;39187;48.476;8.310;2023-04-07T00:59:32;91088.19;;;4.18;100.00
53300;BME280;39187;48.476;8.310;2023-04-07T01:04:31;91079.94;;;4.26;100.00
53300;BME280;39187;48.476;8.310;2023-04-07T01:07:04;91077.31;;;4.26;100.00
53300;BME280;39187;48.476;8.310;2023-04-07T01:09:46;91074.28;;;4.28;99.52
53300;BME280;39187;48.476;8.310;2023-04-07T01:12:24;91073.53;;;4.27;98.19
53300;BME280;39187;48.476;8.310;2023-04-07T01:14:58;91068.28;;;4.20;97.67
53300;BME280;39187;48.476;8.310;2023-04-07T01:17:25;91064.50;;;4.07;97.93
53300;BME280;39187;48.476;8.310;2023-04-07T01:19:57;91066.78;;;4.09;98.24
53300;BME280;39187;48.476;8.310;2023-04-07T01:22:32;91064.88;;;4.20;97.04
53300;BME280;39187;48.476;8.310;2023-04-07T01:25:22;91065.28;;;4.29;96.00
53300;BME280;39187;48.476;8.310;2023-04-07T01:28:03;91065.63;;;4.17;96.65
53300;BME280;39187;48.476;8.310;2023-04-07T01:30:38;91067.53;;;4.27;96.57
53300;BME280;39187;48.476;8.310;2023-04-07T01:33:04;91065.63;;;4.27;96.43
53300;BME280;39187;48.476;8.310;2023-04-07T01:35:32;91060.34;;;4.24;96.68
53300;BME280;39187;48.476;8.310;2023-04-07T01:37:59;91063.75;;;4.31;96.05
53300;BME280;39187;48.476;8.310;2023-04-07T01:40:27;91056.97;;;4.30;96.07
53300;BME280;39187;48.476;8.310;2023-04-07T01:42:55;91053.59;;;4.12;96.14
53300;BME280;39187;48.476;8.310;2023-04-07T01:45:21;91050.22;;;4.19;96.50
53300;BME280;39187;48.476;8.310;2023-04-07T01:47:49;91049.44;;;4.32;95.61
53300;BME280;39187;48.476;8.310;2023-04-07T01:50:14;91048.31;;;4.40;95.08
53300;BME280;39187;48.476;8.310;2023-04-07T01:52:41;91059.22;;;4.46;94.42
53300;BME280;39187;48.476;8.310;2023-04-07T01:55:07;91053.19;;;4.46;94.48
53300;BME280;39187;48.476;8.310;2023-04-07T01:57:34;91052.84;;;4.15;96.90
53300;BME280;39187;48.476;8.310;2023-04-07T01:59:59;91052.09;;;4.29;95.98
53300;BME280;39187;48.476;8.310;2023-04-07T02:02:25;91043.78;;;4.44;94.84
53300;BME280;39187;48.476;8.310;2023-04-07T02:04:55;91047.56;;;4.40;94.51
53300;BME280;39187;48.476;8.310;2023-04-07T02:07:30;91044.19;;;4.32;95.83
53300;BME280;39187;48.476;8.310;2023-04-07T02:09:58;91043.03;;;4.40;95.15
53300;BME280;39187;48.476;8.310;2023-04-07T02:12:25;91053.56;;;4.37;95.42
53300;BME280;39187;48.476;8.310;2023-04-07T02:14:53;91049.78;;;4.49;95.00
53300;BME280;39187;48.476;8.310;2023-04-07T02:17:21;91049.44;;;4.43;95.69
53300;BME280;39187;48.476;8.310;2023-04-07T02:19:48;91043.03;;;4.44;95.73
53300;BME280;39187;48.476;8.310;2023-04-07T02:22:15;91034.03;;;4.27;96.44
53300;BME280;39187;48.476;8.310;2023-04-07T02:24:41;91039.66;;;4.33;97.06
53300;BME280;39187;48.476;8.310;2023-04-07T02:27:07;91031.75;;;4.26;97.69
53300;BME280;39187;48.476;8.310;2023-04-07T02:29:32;91027.25;;;4.33;96.76
53300;BME280;39187;48.476;8.310;2023-04-07T02:31:58;91030.22;;;4.42;96.54
53300;BME280;39187;48.476;8.310;2023-04-07T02:34:23;91030.59;;;4.48;96.07
53300;BME280;39187;48.476;8.310;2023-04-07T02:36:49;91029.44;;;4.56;95.86
53300;BME280;39187;48.476;8.310;2023-04-07T02:39:15;91032.47;;;4.51;95.90
53300;BME280;39187;48.476;8.310;2023-04-07T02:41:41;91024.56;;;4.51;96.19
53300;BME280;39187;48.476;8.310;2023-04-07T02:44:06;91021.56;;;4.49;96.59
53300;BME280;39187;48.476;8.310;2023-04-07T02:46:32;91009.19;;;4.32;97.24
53300;BME280;39187;48.476;8.310;2023-04-07T02:48:57;91007.31;;;4.18;98.68
53300;BME280;39187;48.476;8.310;2023-04-07T02:51:23;91005.81;;;4.07;100.00
53300;BME280;39187;48.476;8.310;2023-04-07T02:53:48;90999.78;;;3.85;100.00
53300;BME280;39187;48.476;8.310;2023-04-07T02:56:15;91001.69;;;3.95;100.00
53300;BME280;39187;48.476;8.310;2023-04-07T02:58:40;90995.66;;;4.19;100.00
53300;BME280;39187;48.476;8.310;2023-04-07T03:01:06;91001.69;;;4.09;100.00
53300;BME280;39187;48.476;8.310;2023-04-07T03:03:31;91002.44;;;4.13;100.00
53300;BME280;39187;48.476;8.310;2023-04-07T03:05:57;90998.28;;;4.33;100.00
53300;BME280;39187;48.476;8.310;2023-04-07T03:08:22;91008.44;;;4.35;99.75
53300;BME280;39187;48.476;8.310;2023-04-07T03:10:48;91014.47;;;4.03;100.00
53300;BME280;39187;48.476;8.310;2023-04-07T03:13:13;91008.44;;;3.99;100.00
53300;BME280;39187;48.476;8.310;2023-04-07T03:15:43;91000.16;;;4.12;100.00
53300;BME280;39187;48.476;8.310;2023-04-07T03:18:09;90999.03;;;3.98;100.00
53300;BME280;39187;48.476;8.310;2023-04-07T03:20:36;90994.91;;;3.97;100.00
53300;BME280;39187;48.476;8.310;2023-04-07T03:23:02;90992.66;;;3.96;100.00
53300;BME280;39187;48.476;8.310;2023-04-07T03:25:28;90990.41;;;4.01;100.00
53300;BME280;39187;48.476;8.310;2023-04-07T03:27:53;90986.63;;;3.92;100.00
53300;BME280;39187;48.476;8.310;2023-04-07T03:30:19;90986.28;;;3.83;100.00
53300;BME280;39187;48.476;8.310;2023-04-07T03:32:45;90979.88;;;3.84;100.00
53300;BME280;39187;48.476;8.310;2023-04-07T03:35:11;90981.00;;;3.69;100.00
53300;BME280;39187;48.476;8.310;2023-04-07T03:37:36;90977.63;;;3.68;100.00
53300;BME280;39187;48.476;8.310;2023-04-07T03:40:02;90979.09;;;3.97;100.00
53300;BME280;39187;48.476;8.310;2023-04-07T03:42:28;90976.84;;;4.21;100.00
53300;BME280;39187;48.476;8.310;2023-04-07T03:44:53;90989.59;;;4.29;100.00
53300;BME280;39187;48.476;8.310;2023-04-07T03:47:19;90981.69;;;4.29;100.00
53300;BME280;39187;48.476;8.310;2023-04-07T03:49:44;90975.69;;;4.32;100.00
53300;BME280;39187;48.476;8.310;2023-04-07T03:52:10;90980.94;;;4.36;100.00
53300;BME280;39187;48.476;8.310;2023-04-07T03:54:35;90983.56;;;4.39;100.00
53300;BME280;39187;48.476;8.310;2023-04-07T03:57:02;90972.25;;;4.42;100.00
53300;BME280;39187;48.476;8.310;2023-04-07T03:59:28;90971.16;;;4.36;100.00
53300;BME280;39187;48.476;8.310;2023-04-07T04:01:54;90967.38;;;4.44;100.00
53300;BME280;39187;48.476;8.310;2023-04-07T04:04:19;90963.22;;;4.43;100.00
53300;BME280;39187;48.476;8.310;2023-04-07T04:06:45;90964.00;;;4.48;100.00
53300;BME280;39187;48.476;8.310;2023-04-07T04:09:11;90966.97;;;4.50;100.00
53300;BME280;39187;48.476;8.310;2023-04-07T04:11:36;90969.59;;;4.50;100.00
53300;BME280;39187;48.476;8.310;2023-04-07T04:14:02;90963.25;;;4.40;100.00
53300;BME280;39187;48.476;8.310;2023-04-07T04:16:27;90961.75;;;4.32;100.00
53300;BME280;39187;48.476;8.310;2023-04-07T04:18:53;90962.13;;;4.41;100.00
53300;BME280;39187;48.476;8.310;2023-04-07T04:21:18;90967.00;;;4.42;100.00
53300;BME280;39187;48.476;8.310;2023-04-07T04:23:44;90967.38;;;4.44;100.00
53300;BME280;39187;48.476;8.310;2023-04-07T04:26:09;90954.97;;;4.41;100.00
53300;BME280;39187;48.476;8.310;2023-04-07T04:28:35;90961.75;;;4.39;100.00
53300;BME280;39187;48.476;8.310;2023-04-07T04:31:01;90956.47;;;4.35;100.00
53300;BME280;39187;48.476;8.310;2023-04-07T04:33:26;90959.09;;;4.35;100.00
53300;BME280;39187;48.476;8.310;2023-04-07T04:35:51;90961.00;;;4.38;99.55
53300;BME280;39187;48.476;8.310;2023-04-07T04:38:17;90959.88;;;4.32;99.71
53300;BME280;39187;48.476;8.310;2023-04-07T04:40:43;90958.75;;;4.33;99.13
53300;BME280;39187;48.476;8.310;2023-04-07T04:43:09;90955.41;;;4.22;100.00
53300;BME280;39187;48.476;8.310;2023-04-07T04:45:35;90955.78;;;4.21;100.00
53300;BME280;39187;48.476;8.310;2023-04-07T04:48:00;90952.75;;;4.22;100.00
53300;BME280;39187;48.476;8.310;2023-04-07T04:50:26;90953.13;;;4.21;100.00
53300;BME280;39187;48.476;8.310;2023-04-07T04:52:51;90953.53;;;4.16;99.63
53300;BME280;39187;48.476;8.310;2023-04-07T04:55:17;90961.09;;;3.89;100.00
53300;BME280;39187;48.476;8.310;2023-04-07T04:57:43;90954.66;;;4.15;100.00
53300;BME280;39187;48.476;8.310;2023-04-07T05:00:09;90952.38;;;4.20;100.00
53300;BME280;39187;48.476;8.310;2023-04-07T05:02:38;90953.88;;;4.28;99.88
53300;BME280;39187;48.476;8.310;2023-04-07T05:05:03;90953.84;;;4.32;99.56
53300;BME280;39187;48.476;8.310;2023-04-07T05:07:30;90952.00;;;4.22;100.00
53300;BME280;39187;48.476;8.310;2023-04-07T05:09:55;90943.34;;;4.25;100.00
53300;BME280;39187;48.476;8.310;2023-04-07T05:12:20;90949.44;;;3.90;100.00
53300;BME280;39187;48.476;8.310;2023-04-07T05:14:46;90948.63;;;4.14;100.00
53300;BME280;39187;48.476;8.310;2023-04-07T05:17:12;90944.81;;;4.29;100.00
53300;BME280;39187;48.476;8.310;2023-04-07T05:19:37;90951.56;;;4.37;100.00
53300;BME280;39187;48.476;8.310;2023-04-07T05:22:03;90948.91;;;4.48;99.80
53300;BME280;39187;48.476;8.310;2023-04-07T05:24:28;90948.75;;;4.87;99.45
53300;BME280;39187;48.476;8.310;2023-04-07T05:26:54;90944.81;;;5.20;98.24
53300;BME280;39187;48.476;8.310;2023-04-07T05:29:21;90948.81;;;5.46;96.14
53300;BME280;39187;48.476;8.310;2023-04-07T05:31:47;90944.66;;;5.48;95.08
53300;BME280;39187;48.476;8.310;2023-04-07T05:34:12;90946.22;;;5.42;95.30
53300;BME280;39187;48.476;8.310;2023-04-07T05:36:38;90951.09;;;5.44;95.62
53300;BME280;39187;48.476;8.310;2023-04-07T05:39:03;90945.09;;;5.40;95.95
53300;BME280;39187;48.476;8.310;2023-04-07T05:41:29;90940.53;;;5.44;96.10
53300;BME280;39187;48.476;8.310;2023-04-07T05:43:54;90946.16;;;5.49;95.94
53300;BME280;39187;48.476;8.310;2023-04-07T05:46:20;90950.22;;;5.57;95.36
53300;BME280;39187;48.476;8.310;2023-04-07T05:48:45;90957.31;;;5.71;95.01
53300;BME280;39187;48.476;8.310;2023-04-07T05:51:11;90959.13;;;5.78;94.54
53300;BME280;39187;48.476;8.310;2023-04-07T05:53:36;90952.09;;;6.12;94.54
53300;BME280;39187;48.476;8.310;2023-04-07T05:56:02;90949.06;;;6.85;91.08
53300;BME280;39187;48.476;8.310;2023-04-07T05:58:27;90951.28;;;6.90;89.31
53300;BME280;39187;48.476;8.310;2023-04-07T06:00:53;90960.63;;;6.98;87.79
53300;BME280;39187;48.476;8.310;2023-04-07T06:03:18;90956.69;;;6.79;88.24
53300;BME280;39187;48.476;8.310;2023-04-07T06:05:47;90960.38;;;6.89;86.95
53300;BME280;39187;48.476;8.310;2023-04-07T06:08:12;90955.06;;;6.89;86.62
53300;BME280;39187;48.476;8.310;2023-04-07T06:10:39;90955.19;;;6.44;88.63
53300;BME280;39187;48.476;8.310;2023-04-07T06:13:06;90957.13;;;6.74;87.06
53300;BME280;39187;48.476;8.310;2023-04-07T06:15:31;90952.97;;;6.73;87.42
53300;BME280;39187;48.476;8.310;2023-04-07T06:17:57;90957.81;;;6.82;85.81
53300;BME280;39187;48.476;8.310;2023-04-07T06:20:22;90956.66;;;6.83;86.58
53300;BME280;39187;48.476;8.310;2023-04-07T06:22:48;90954.72;;;6.87;85.68
53300;BME280;39187;48.476;8.310;2023-04-07T06:25:14;90957.34;;;6.91;85.67
53300;BME280;39187;48.476;8.310;2023-04-07T06:27:39;90956.91;;;6.92;85.37
53300;BME280;39187;48.476;8.310;2023-04-07T06:30:05;90959.84;;;7.01;84.09
53300;BME280;39187;48.476;8.310;2023-04-07T06:32:31;90962.66;;;6.87;84.77
53300;BME280;39187;48.476;8.310;2023-04-07T06:34:57;90963.19;;;7.05;83.88
53300;BME280;39187;48.476;8.310;2023-04-07T06:37:23;90962.34;;;7.12;84.08
53300;BME280;39187;48.476;8.310;2023-04-07T06:39:50;90957.34;;;7.21;83.09
53300;BME280;39187;48.476;8.310;2023-04-07T06:42:16;90953.47;;;7.25;82.62
53300;BME280;39187;48.476;8.310;2023-04-07T06:44:41;90959.97;;;7.21;83.04
53300;BME280;39187;48.476;8.310;2023-04-07T06:47:07;90960.44;;;7.16;82.82
53300;BME280;39187;48.476;8.310;2023-04-07T06:49:33;90956.97;;;7.19;82.64
53300;BME280;39187;48.476;8.310;2023-04-07T06:51:59;90950.47;;;7.23;81.21
53300;BME280;39187;48.476;8.310;2023-04-07T06:54:24;90954.69;;;7.21;81.32
53300;BME280;39187;48.476;8.310;2023-04-07T06:56:50;90956.56;;;7.20;81.12
53300;BME280;39187;48.476;8.310;2023-04-07T06:59:15;90957.94;;;7.02;82.16
53300;BME280;39187;48.476;8.310;2023-04-07T07:01:41;90960.44;;;7.12;82.59
53300;BME280;39187;48.476;8.310;2023-04-07T07:04:08;90957.78;;;7.16;81.59
53300;BME280;39187;48.476;8.310;2023-04-07T07:06:33;90966.06;;;7.18;82.21
53300;BME280;39187;48.476;8.310;2023-04-07T07:08:59;90966.78;;;7.22;81.66
53300;BME280;39187;48.476;8.310;2023-04-07T07:11:25;90968.97;;;7.27;82.62
53300;BME280;39187;48.476;8.310;2023-04-07T07:13:51;90974.72;;;7.22;82.21
53300;BME280;39187;48.476;8.310;2023-04-07T07:16:16;90965.97;;;7.25;82.19
53300;BME280;39187;48.476;8.310;2023-04-07T07:18:42;90975.94;;;7.14;82.47
53300;BME280;39187;48.476;8.310;2023-04-07T07:21:07;90976.94;;;6.93;83.30
53300;BME280;39187;48.476;8.310;2023-04-07T07:23:33;90977.47;;;6.43;86.57
53300;BME280;39187;48.476;8.310;2023-04-07T07:25:59;90980.97;;;6.71;85.66
53300;BME280;39187;48.476;8.310;2023-04-07T07:28:24;90982.66;;;6.13;89.11
53300;BME280;39187;48.476;8.310;2023-04-07T07:30:50;90979.44;;;6.73;85.80
53300;BME280;39187;48.476;8.310;2023-04-07T07:33:16;90975.47;;;6.55;85.96
53300;BME280;39187;48.476;8.310;2023-04-07T07:35:41;90976.09;;;6.66;85.61
53300;BME280;39187;48.476;8.310;2023-04-07T07:38:07;90981.91;;;6.88;84.09
53300;BME280;39187;48.476;8.310;2023-04-07T07:40:32;90982.03;;;6.77;85.00
53300;BME280;39187;48.476;8.310;2023-04-07T07:42:59;90982.63;;;6.92;83.76
53300;BME280;39187;48.476;8.310;2023-04-07T07:45:25;90976.03;;;6.73;85.18
53300;BME280;39187;48.476;8.310;2023-04-07T07:47:51;90986.34;;;6.64;87.06
53300;BME280;39187;48.476;8.310;2023-04-07T07:50:16;90986.06;;;6.89;85.31
53300;BME280;39187;48.476;8.310;2023-04-07T07:52:42;90986.38;;;6.94;84.72
53300;BME280;39187;48.476;8.310;2023-04-07T07:55:08;90978.09;;;6.92;85.68
53300;BME280;39187;48.476;8.310;2023-04-07T07:57:34;90986.38;;;6.94;85.51
53300;BME280;39187;48.476;8.310;2023-04-07T08:00:01;90978.66;;;7.07;85.18
53300;BME280;39187;48.476;8.310;2023-04-07T08:02:26;90984.16;;;7.23;83.93
53300;BME280;39187;48.476;8.310;2023-04-07T08:04:56;90981.41;;;7.30;83.64
53300;BME280;39187;48.476;8.310;2023-04-07T08:07:22;90988.16;;;7.35;84.31
53300;BME280;39187;48.476;8.310;2023-04-07T08:09:47;90982.69;;;7.49;83.98
53300;BME280;39187;48.476;8.310;2023-04-07T08:12:14;90993.03;;;7.09;86.80
53300;BME280;39187;48.476;8.310;2023-04-07T08:14:39;90993.75;;;7.40;85.08
53300;BME280;39187;48.476;8.310;2023-04-07T08:17:05;90992.81;;;7.54;85.48
53300;BME280;39187;48.476;8.310;2023-04-07T08:19:31;90996.66;;;7.19;88.29
53300;BME280;39187;48.476;8.310;2023-04-07T08:21:56;90992.69;;;7.64;84.31
53300;BME280;39187;48.476;8.310;2023-04-07T08:24:22;90999.50;;;7.62;83.37
53300;BME280;39187;48.476;8.310;2023-04-07T08:26:47;91001.31;;;7.69;83.57
53300;BME280;39187;48.476;8.310;2023-04-07T08:29:13;90997.97;;;7.64;83.03
53300;BME280;39187;48.476;8.310;2023-04-07T08:31:39;91008.53;;;7.68;83.42
53300;BME280;39187;48.476;8.310;2023-04-07T08:34:05;91009.22;;;7.72;82.70
53300;BME280;39187;48.476;8.310;2023-04-07T08:36:31;91011.47;;;7.74;81.72
53300;BME280;39187;48.476;8.310;2023-04-07T08:38:57;91009.97;;;7.73;80.97
53300;BME280;39187;48.476;8.310;2023-04-07T08:41:35;91008.84;;;7.74;81.13
53300;BME280;39187;48.476;8.310;2023-04-07T08:44:02;91019.44;;;7.43;83.59
53300;BME280;39187;48.476;8.310;2023-04-07T08:46:28;91015.31;;;7.42;83.99
53300;BME280;39187;48.476;8.310;2023-04-07T08:48:55;91013.47;;;7.66;82.03
53300;BME280;39187;48.476;8.310;2023-04-07T08:51:29;91016.91;;;7.90;81.46
53300;BME280;39187;48.476;8.310;2023-04-07T08:54:14;91014.56;;;7.95;80.59
53300;BME280;39187;48.476;8.310;2023-04-07T08:56:41;91011.41;;;8.04;80.21
53300;BME280;39187;48.476;8.310;2023-04-07T08:59:09;91014.75;;;8.08;79.42
53300;BME280;39187;48.476;8.310;2023-04-07T09:01:35;91006.28;;;7.67;80.52
53300;BME280;39187;48.476;8.310;2023-04-07T09:04:02;91017.44;;;7.20;83.86
53300;BME280;39187;48.476;8.310;2023-04-07T09:06:32;91010.50;;;7.87;81.27
53300;BME280;39187;48.476;8.310;2023-04-07T09:08:59;91015.88;;;7.84;81.70
53300;BME280;39187;48.476;8.310;2023-04-07T09:11:29;91023.97;;;8.00;79.56
53300;BME280;39187;48.476;8.310;2023-04-07T09:13:55;91026.72;;;7.93;80.14
53300;BME280;39187;48.476;8.310;2023-04-07T09:16:21;91027.06;;;7.95;79.91
53300;BME280;39187;48.476;8.310;2023-04-07T09:18:48;91023.16;;;8.03;79.50
53300;BME280;39187;48.476;8.310;2023-04-07T09:21:14;91025.13;;;7.99;79.89
53300;BME280;39187;48.476;8.310;2023-04-07T09:23:41;91020.16;;;8.01;80.00
53300;BME280;39187;48.476;8.310;2023-04-07T09:26:26;91029.91;;;7.54;84.24
53300;BME280;39187;48.476;8.310;2023-04-07T09:29:01;91027.03;;;7.98;81.20
53300;BME280;39187;48.476;8.310;2023-04-07T09:31:54;91027.56;;;7.59;84.18
53300;BME280;39187;48.476;8.310;2023-04-07T09:34:27;91028.91;;;7.98;82.84
53300;BME280;39187;48.476;8.310;2023-04-07T09:36:54;91026.84;;;8.09;81.07
53300;BME280;39187;48.476;8.310;2023-04-07T09:39:21;91027.50;;;8.17;80.52
53300;BME280;39187;48.476;8.310;2023-04-07T09:41:46;91034.47;;;7.80;82.77
53300;BME280;39187;48.476;8.310;2023-04-07T09:44:12;91022.41;;;8.02;80.24
53300;BME280;39187;48.476;8.310;2023-04-07T09:46:55;91034.97;;;7.98;80.55
53300;BME280;39187;48.476;8.310;2023-04-07T09:49:22;91034.50;;;8.03;80.86
53300;BME280;39187;48.476;8.310;2023-04-07T09:51:53;91035.63;;;8.06;79.83
53300;BME280;39187;48.476;8.310;2023-04-07T09:54:35;91042.09;;;7.75;81.42
53300;BME280;39187;48.476;8.310;2023-04-07T09:57:04;91039.56;;;7.94;81.18
53300;BME280;39187;48.476;8.310;2023-04-07T09:59:31;91039.22;;;7.92;81.63
53300;BME280;39187;48.476;8.310;2023-04-07T10:01:58;91033.69;;;8.06;81.54
53300;BME280;39187;48.476;8.310;2023-04-07T10:04:24;91042.84;;;8.02;81.58
53300;BME280;39187;48.476;8.310;2023-04-07T10:06:52;91033.56;;;7.90;81.72
53300;BME280;39187;48.476;8.310;2023-04-07T10:09:19;91039.34;;;8.09;81.20
53300;BME280;39187;48.476;8.310;2023-04-07T10:11:47;91040.34;;;8.18;79.62
53300;BME280;39187;48.476;8.310;2023-04-07T10:14:14;91031.59;;;8.21;80.11
53300;BME280;39187;48.476;8.310;2023-04-07T10:16:41;91036.97;;;8.18;81.02
53300;BME280;39187;48.476;8.310;2023-04-07T10:19:07;91036.59;;;7.89;84.15
53300;BME280;39187;48.476;8.310;2023-04-07T10:21:39;91031.16;;;7.99;84.73
53300;BME280;39187;48.476;8.310;2023-04-07T10:26:34;91033.78;;;8.26;83.51
53300;BME280;39187;48.476;8.310;2023-04-07T10:29:09;91041.91;;;8.16;84.87
53300;BME280;39187;48.476;8.310;2023-04-07T10:31:37;91038.13;;;8.40;84.15
53300;BME280;39187;48.476;8.310;2023-04-07T10:34:03;91037.81;;;8.38;84.86
53300;BME280;39187;48.476;8.310;2023-04-07T10:36:30;91036.69;;;8.59;83.03
53300;BME280;39187;48.476;8.310;2023-04-07T10:41:38;91035.91;;;9.44;80.01
53300;BME280;39187;48.476;8.310;2023-04-07T10:44:05;91033.78;;;9.36;77.45
53300;BME280;39187;48.476;8.310;2023-04-07T10:49:14;91041.56;;;8.64;80.00
53300;BME280;39187;48.476;8.310;2023-04-07T10:51:41;91043.38;;;8.67;80.19
53300;BME280;39187;48.476;8.310;2023-04-07T10:54:17;91041.72;;;8.76;79.02
53300;BME280;39187;48.476;8.310;2023-04-07T10:59:30;91042.09;;;8.98;78.63
53300;BME280;39187;48.476;8.310;2023-04-07T11:04:41;91043.22;;;9.40;76.43
53300;BME280;39187;48.476;8.310;2023-04-07T11:07:08;91039.03;;;9.39;75.21
53300;BME280;39187;48.476;8.310;2023-04-07T11:09:34;91041.09;;;9.51;74.38
53300;BME280;39187;48.476;8.310;2023-04-07T11:12:00;91040.44;;;9.83;70.82
53300;BME280;39187;48.476;8.310;2023-04-07T11:14:30;91040.25;;;9.54;71.44
53300;BME280;39187;48.476;8.310;2023-04-07T11:16:58;91033.56;;;9.66;71.23
53300;BME280;39187;48.476;8.310;2023-04-07T11:19:25;91034.81;;;9.42;72.83
53300;BME280;39187;48.476;8.310;2023-04-07T11:22:17;91037.25;;;8.93;74.86
53300;BME280;39187;48.476;8.310;2023-04-07T11:24:44;91034.88;;;9.58;73.38
53300;BME280;39187;48.476;8.310;2023-04-07T11:27:14;91035.56;;;9.42;75.59
53300;BME280;39187;48.476;8.310;2023-04-07T11:29:40;91029.78;;;9.47;73.30
53300;BME280;39187;48.476;8.310;2023-04-07T11:32:06;91036.03;;;9.93;70.94
53300;BME280;39187;48.476;8.310;2023-04-07T11:34:33;91027.59;;;9.42;69.34
53300;BME280;39187;48.476;8.310;2023-04-07T11:37:22;91033.25;;;9.24;70.11
53300;BME280;39187;48.476;8.310;2023-04-07T11:39:55;91044.22;;;9.46;70.49
53300;BME280;39187;48.476;8.310;2023-04-07T11:42:35;91040.06;;;9.45;70.11
53300;BME280;39187;48.476;8.310;2023-04-07T11:45:02;91046.44;;;9.48;70.00
53300;BME280;39187;48.476;8.310;2023-04-07T11:47:38;91042.09;;;9.57;69.17
53300;BME280;39187;48.476;8.310;2023-04-07T11:50:04;91051.03;;;9.28;70.87
53300;BME280;39187;48.476;8.310;2023-04-07T11:52:48;91047.56;;;9.31;71.33
53300;BME280;39187;48.476;8.310;2023-04-07T11:55:21;91052.88;;;9.31;72.69
53300;BME280;39187;48.476;8.310;2023-04-07T11:57:49;91056.13;;;9.38;71.81
53300;BME280;39187;48.476;8.310;2023-04-07T12:00:18;91056.81;;;9.22;73.64
53300;BME280;39187;48.476;8.310;2023-04-07T12:02:44;91052.19;;;9.27;72.80
53300;BME280;39187;48.476;8.310;2023-04-07T12:05:09;91049.06;;;9.32;71.97
53300;BME280;39187;48.476;8.310;2023-04-07T12:07:36;91056.81;;;9.22;72.94
53300;BME280;39187;48.476;8.310;2023-04-07T12:10:22;91062.66;;;9.14;73.32
53300;BME280;39187;48.476;8.310;2023-04-07T12:12:48;91059.66;;;9.12;73.51
53300;BME280;39187;48.476;8.310;2023-04-07T12:15:16;91050.75;;;9.02;72.50
53300;BME280;39187;48.476;8.310;2023-04-07T12:17:47;91054.69;;;9.14;72.88
53300;BME280;39187;48.476;8.310;2023-04-07T12:20:13;91058.72;;;9.22;73.30
53300;BME280;39187;48.476;8.310;2023-04-07T12:22:40;91054.88;;;9.03;74.07
53300;BME280;39187;48.476;8.310;2023-04-07T12:25:06;91053.94;;;8.94;73.20
53300;BME280;39187;48.476;8.310;2023-04-07T12:27:32;91058.69;;;8.82;75.28
53300;BME280;39187;48.476;8.310;2023-04-07T12:29:57;91063.78;;;8.93;74.14
53300;BME280;39187;48.476;8.310;2023-04-07T12:32:23;91060.50;;;9.09;73.97
53300;BME280;39187;48.476;8.310;2023-04-07T12:34:48;91066.47;;;9.13;74.30
53300;BME280;39187;48.476;8.310;2023-04-07T12:37:14;91063.38;;;8.71;79.00
53300;BME280;39187;48.476;8.310;2023-04-07T12:39:39;91063.31;;;8.98;76.92
53300;BME280;39187;48.476;8.310;2023-04-07T12:42:05;91059.25;;;9.13;73.45
53300;BME280;39187;48.476;8.310;2023-04-07T12:44:31;91056.84;;;8.99;73.44
53300;BME280;39187;48.476;8.310;2023-04-07T12:46:57;91058.38;;;9.20;72.80
53300;BME280;39187;48.476;8.310;2023-04-07T12:49:22;91061.00;;;9.00;75.92
53300;BME280;39187;48.476;8.310;2023-04-07T12:51:48;91059.59;;;8.72;76.12
53300;BME280;39187;48.476;8.310;2023-04-07T12:54:13;91065.22;;;8.98;75.46
53300;BME280;39187;48.476;8.310;2023-04-07T12:56:39;91063.19;;;9.05;76.62
53300;BME280;39187;48.476;8.310;2023-04-07T12:59:06;91064.00;;;9.22;76.08
53300;BME280;39187;48.476;8.310;2023-04-07T13:01:32;91061.09;;;9.16;75.37
53300;BME280;39187;48.476;8.310;2023-04-07T13:03:59;91066.50;;;9.52;75.60
53300;BME280;39187;48.476;8.310;2023-04-07T13:06:26;91072.81;;;9.58;78.06
53300;BME280;39187;48.476;8.310;2023-04-07T13:08:51;91063.97;;;9.65;75.52
53300;BME280;39187;48.476;8.310;2023-04-07T13:11:17;91065.91;;;9.81;71.77
53300;BME280;39187;48.476;8.310;2023-04-07T13:13:42;91065.88;;;9.64;71.69
53300;BME280;39187;48.476;8.310;2023-04-07T13:16:08;91070.16;;;9.58;70.83
53300;BME280;39187;48.476;8.310;2023-04-07T13:18:33;91066.44;;;9.92;71.11
53300;BME280;39187;48.476;8.310;2023-04-07T13:20:59;91063.78;;;9.92;70.52
53300;BME280;39187;48.476;8.310;2023-04-07T13:23:25;91067.75;;;9.84;71.10